createdAt,value
2023-09-14T00:02:16.711Z,20.07
2023-09-14T00:05:20.802Z,20.04
2023-09-14T00:08:24.779Z,20.02
2023-09-14T00:11:28.723Z,19.98
2023-09-14T00:14:33.488Z,19.95
2023-09-14T00:17:37.421Z,19.92
2023-09-14T00:20:41.552Z,19.88
2023-09-14T00:23:45.773Z,19.88
2023-09-14T00:26:50.668Z,19.85
2023-09-14T00:29:55.098Z,19.83
2023-09-14T00:32:59.061Z,19.81
2023-09-14T00:36:03.657Z,19.77
2023-09-14T00:39:11.254Z,19.74
2023-09-14T00:42:15.241Z,19.73
2023-09-14T00:45:21.612Z,19.72
2023-09-14T00:48:25.960Z,19.70
2023-09-14T00:51:30.743Z,19.68
2023-09-14T00:54:34.918Z,19.65
2023-09-14T00:57:39.647Z,19.62
2023-09-14T01:00:45.907Z,19.59
2023-09-14T01:03:50.489Z,19.57
2023-09-14T01:06:56.408Z,19.56
2023-09-14T01:10:01.152Z,19.52
2023-09-14T01:13:05.260Z,19.48
2023-09-14T01:16:17.011Z,19.46
2023-09-14T01:19:48.694Z,19.44
2023-09-14T01:23:04.208Z,19.42
2023-09-14T01:26:09.658Z,19.41
2023-09-14T01:29:13.640Z,19.41
2023-09-14T01:32:18.015Z,19.41
2023-09-14T01:35:22.243Z,19.43
2023-09-14T01:38:26.700Z,19.45
2023-09-14T01:41:32.407Z,19.43
2023-09-14T01:44:37.652Z,19.40
2023-09-14T01:47:42.712Z,19.39
2023-09-14T01:50:47.305Z,19.40
2023-09-14T01:53:51.732Z,19.38
2023-09-14T01:56:55.840Z,19.41
2023-09-14T02:00:00.032Z,19.41
2023-09-14T02:03:04.488Z,19.39
2023-09-14T02:06:08.593Z,19.36
2023-09-14T02:09:12.604Z,19.33
2023-09-14T02:12:16.712Z,19.33
2023-09-14T02:15:20.644Z,19.32
2023-09-14T02:18:24.753Z,19.33
2023-09-14T02:21:28.771Z,19.33
2023-09-14T02:24:32.871Z,19.34
2023-09-14T02:27:36.908Z,19.34
2023-09-14T02:30:41.402Z,19.33
2023-09-14T02:33:45.517Z,19.31
2023-09-14T02:36:50.131Z,19.32
2023-09-14T02:39:54.206Z,19.33
2023-09-14T02:42:59.659Z,19.35
2023-09-14T02:46:03.806Z,19.35
2023-09-14T02:49:07.921Z,19.33
2023-09-14T02:52:12.032Z,19.28
2023-09-14T02:55:16.161Z,19.25
2023-09-14T02:58:20.344Z,19.22
2023-09-14T03:01:25.787Z,19.21
2023-09-14T03:04:30.012Z,19.21
2023-09-14T03:07:34.287Z,19.24
2023-09-14T03:10:39.128Z,19.24
2023-09-14T03:13:43.156Z,19.23
2023-09-14T03:16:47.932Z,19.22
2023-09-14T03:19:54.422Z,19.23
2023-09-14T03:23:00.583Z,19.26
2023-09-14T03:26:04.647Z,19.28
2023-09-14T03:29:09.148Z,19.25
2023-09-14T03:32:13.280Z,19.21
2023-09-14T03:35:17.320Z,19.20
2023-09-14T03:38:22.220Z,19.21
2023-09-14T03:41:26.308Z,19.20
2023-09-14T03:44:30.336Z,19.18
2023-09-14T03:47:34.437Z,19.16
2023-09-14T03:50:38.389Z,19.13
2023-09-14T03:53:42.625Z,19.11
2023-09-14T03:56:46.589Z,19.07
2023-09-14T03:59:50.757Z,19.05
2023-09-14T04:02:55.244Z,19.04
2023-09-14T04:05:59.650Z,19.04
2023-09-14T04:09:05.639Z,19.01
2023-09-14T04:12:10.346Z,18.96
2023-09-14T04:15:15.002Z,18.94
2023-09-14T04:18:19.653Z,18.95
2023-09-14T04:21:23.834Z,18.97
2023-09-14T04:24:28.045Z,18.99
2023-09-14T04:27:32.393Z,18.99
2023-09-14T04:30:45.969Z,18.95
2023-09-14T04:33:50.168Z,18.91
2023-09-14T04:36:54.161Z,18.87
2023-09-14T04:39:58.346Z,18.86
2023-09-14T04:43:02.451Z,18.87
2023-09-14T04:46:06.810Z,18.89
2023-09-14T04:49:14.073Z,18.89
2023-09-14T04:52:18.264Z,18.89
2023-09-14T04:55:22.957Z,18.90
2023-09-14T04:58:27.206Z,18.91
2023-09-14T05:01:32.175Z,18.89
2023-09-14T05:04:36.900Z,18.84
2023-09-14T05:07:44.239Z,18.82
2023-09-14T05:10:52.679Z,18.83
2023-09-14T05:13:57.999Z,18.84
2023-09-14T05:17:03.523Z,18.87
2023-09-14T05:20:09.998Z,18.90
2023-09-14T05:23:15.086Z,18.92
2023-09-14T05:26:19.293Z,18.91
2023-09-14T05:29:23.385Z,18.87
2023-09-14T05:32:27.524Z,18.86
2023-09-14T05:35:33.065Z,18.86
2023-09-14T05:38:37.214Z,18.87
2023-09-14T05:41:41.743Z,18.87
2023-09-14T05:44:45.712Z,18.83
2023-09-14T05:47:50.148Z,18.81
2023-09-14T05:50:54.179Z,18.80
2023-09-14T05:53:58.327Z,18.79
2023-09-14T05:57:04.281Z,18.77
2023-09-14T06:00:14.575Z,18.77
2023-09-14T06:03:23.609Z,18.76
2023-09-14T06:06:27.919Z,18.73
2023-09-14T06:09:31.970Z,18.71
2023-09-14T06:12:36.456Z,18.67
2023-09-14T06:15:40.510Z,18.61
2023-09-14T06:18:45.127Z,18.57
2023-09-14T06:21:49.513Z,18.54
2023-09-14T06:24:53.537Z,18.57
2023-09-14T06:27:57.657Z,18.60
2023-09-14T06:31:01.829Z,18.62
2023-09-14T06:34:06.254Z,18.63
2023-09-14T06:37:10.310Z,18.64
2023-09-14T06:40:16.123Z,18.63
2023-09-14T06:43:20.348Z,18.68
2023-09-14T06:46:24.531Z,18.74
2023-09-14T06:49:28.560Z,18.77
2023-09-14T06:52:34.034Z,18.80
2023-09-14T06:55:39.739Z,18.82
2023-09-14T06:58:44.388Z,18.85
2023-09-14T07:01:48.744Z,18.86
2023-09-14T07:04:52.731Z,18.87
2023-09-14T07:07:56.905Z,18.88
2023-09-14T07:11:01.339Z,18.90
2023-09-14T07:14:05.551Z,18.97
2023-09-14T07:17:10.934Z,19.04
2023-09-14T07:20:15.110Z,19.11
2023-09-14T07:23:19.648Z,19.17
2023-09-14T07:26:23.682Z,19.24
2023-09-14T07:29:29.700Z,19.31
2023-09-14T07:32:34.619Z,19.39
2023-09-14T07:35:41.070Z,19.45
2023-09-14T07:38:45.690Z,19.51
2023-09-14T07:41:56.579Z,19.58
2023-09-14T07:45:00.771Z,19.63
2023-09-14T07:48:06.367Z,19.67
2023-09-14T07:51:10.380Z,19.72
2023-09-14T07:54:14.959Z,19.77
2023-09-14T07:57:18.973Z,19.81
2023-09-14T08:00:22.927Z,19.81
2023-09-14T08:03:29.014Z,19.83
2023-09-14T08:06:34.911Z,19.87
2023-09-14T08:09:41.520Z,19.94
2023-09-14T08:12:45.609Z,19.98
2023-09-14T08:15:49.782Z,20.04
2023-09-14T08:18:53.915Z,20.08
2023-09-14T08:21:58.881Z,20.08
2023-09-14T08:25:04.798Z,20.11
2023-09-14T08:28:08.920Z,20.18
2023-09-14T08:31:13.208Z,20.24
2023-09-14T08:34:17.625Z,20.28
2023-09-14T08:37:21.612Z,20.29
2023-09-14T08:40:26.118Z,20.30
2023-09-14T08:43:30.592Z,20.33
2023-09-14T08:46:36.250Z,20.33
2023-09-14T08:49:43.003Z,20.36
2023-09-14T08:52:48.066Z,20.41
2023-09-14T08:55:52.505Z,20.45
2023-09-14T08:58:57.317Z,20.50
2023-09-14T09:02:03.200Z,20.54
2023-09-14T09:05:07.976Z,20.56
2023-09-14T09:08:12.567Z,20.57
2023-09-14T09:11:16.676Z,20.57
2023-09-14T09:14:20.672Z,20.58
2023-09-14T09:17:24.821Z,20.61
2023-09-14T09:20:29.221Z,20.63
2023-09-14T09:23:35.223Z,20.62
2023-09-14T09:26:41.627Z,20.64
2023-09-14T09:29:45.832Z,20.68
2023-09-14T09:32:56.668Z,20.73
2023-09-14T09:36:02.319Z,20.80
2023-09-14T09:39:07.716Z,20.83
2023-09-14T09:42:14.477Z,20.86
2023-09-14T09:45:20.972Z,20.85
2023-09-14T09:48:28.637Z,20.82
2023-09-14T09:51:34.254Z,20.83
2023-09-14T09:54:38.259Z,20.88
2023-09-14T09:57:51.157Z,20.95
2023-09-14T10:00:59.063Z,20.99
2023-09-14T10:04:09.173Z,21.02
2023-09-14T10:07:22.568Z,21.05
2023-09-14T10:10:28.162Z,21.09
2023-09-14T10:13:32.123Z,21.14
2023-09-14T10:16:40.154Z,21.20
2023-09-14T10:19:49.071Z,21.25
2023-09-14T10:22:53.939Z,21.29
2023-09-14T10:25:59.007Z,21.29
2023-09-14T10:29:05.657Z,21.28
2023-09-14T10:32:12.787Z,21.26
2023-09-14T10:35:19.256Z,21.25
2023-09-14T10:38:24.562Z,21.23
2023-09-14T10:41:29.178Z,21.22
2023-09-14T10:44:34.110Z,21.18
2023-09-14T10:47:41.983Z,21.17
2023-09-14T10:50:46.575Z,21.19
2023-09-14T10:53:50.933Z,21.20
2023-09-14T10:56:58.432Z,21.22
2023-09-14T11:00:20.408Z,21.21
2023-09-14T11:03:27.517Z,21.18
2023-09-14T11:06:53.918Z,21.16
2023-09-14T11:10:08.841Z,21.14
2023-09-14T11:13:22.669Z,21.12
2023-09-14T11:16:42.760Z,21.13
2023-09-14T11:19:54.909Z,21.16
2023-09-14T11:23:04.399Z,21.22
2023-09-14T11:26:19.178Z,21.27
2023-09-14T11:29:29.092Z,21.33
2023-09-14T11:32:35.717Z,21.40
2023-09-14T11:35:47.201Z,21.47
2023-09-14T11:38:53.210Z,21.51
2023-09-14T11:42:05.948Z,21.52
2023-09-14T11:51:29.360Z,21.33
2023-09-14T11:54:33.816Z,21.28
2023-09-14T11:57:39.250Z,21.23
2023-09-14T12:00:47.267Z,21.19
2023-09-14T12:03:51.952Z,21.19
2023-09-14T12:06:57.169Z,21.22
2023-09-14T12:10:02.355Z,21.26
2023-09-14T12:13:14.897Z,21.32
2023-09-14T12:16:29.111Z,21.38
2023-09-14T12:19:33.385Z,21.42
2023-09-14T12:22:37.410Z,21.46
2023-09-14T12:25:42.894Z,21.51
2023-09-14T12:28:52.841Z,21.56
2023-09-14T12:31:56.878Z,21.61
2023-09-14T12:35:00.911Z,21.64
2023-09-14T12:38:05.809Z,21.65
2023-09-14T12:41:12.390Z,21.65
2023-09-14T12:44:18.167Z,21.65
2023-09-14T12:47:22.575Z,21.63
2023-09-14T12:50:31.144Z,21.59
2023-09-14T12:53:41.668Z,21.56
2023-09-14T12:56:46.094Z,21.53
2023-09-14T13:00:08.571Z,21.50
2023-09-14T13:03:15.560Z,21.48
2023-09-14T13:06:20.892Z,21.46
2023-09-14T13:09:25.034Z,21.42
2023-09-14T13:12:29.098Z,21.41
2023-09-14T13:15:34.939Z,21.43
2023-09-14T13:18:39.066Z,21.46
2023-09-14T13:21:44.595Z,21.51
2023-09-14T13:24:48.581Z,21.56
2023-09-14T13:27:53.774Z,21.62
2023-09-14T13:30:58.709Z,21.68
2023-09-14T13:34:03.226Z,21.71
2023-09-14T13:37:07.292Z,21.71
2023-09-14T13:40:24.714Z,21.74
2023-09-14T13:43:28.670Z,21.79
2023-09-14T13:46:32.697Z,21.79
2023-09-14T13:49:36.676Z,21.76
2023-09-14T13:52:40.755Z,21.70
2023-09-14T13:55:45.029Z,21.65
2023-09-14T13:58:49.242Z,21.60
2023-09-14T14:01:54.046Z,21.56
2023-09-14T14:04:58.560Z,21.54
2023-09-14T14:08:05.276Z,21.51
2023-09-14T14:11:09.234Z,21.48
2023-09-14T14:14:19.279Z,21.46
2023-09-14T14:17:29.315Z,21.44
2023-09-14T14:20:33.507Z,21.42
2023-09-14T14:23:37.529Z,21.39
2023-09-14T14:26:44.252Z,21.36
2023-09-14T14:29:49.260Z,21.33
2023-09-14T14:32:53.286Z,21.28
2023-09-14T14:35:57.274Z,21.22
2023-09-14T14:39:01.287Z,21.16
2023-09-14T14:42:05.890Z,21.12
2023-09-14T14:45:10.688Z,21.09
2023-09-14T14:48:14.783Z,21.07
2023-09-14T14:51:18.855Z,21.06
2023-09-14T14:54:22.828Z,21.06
2023-09-14T14:57:26.822Z,21.05
2023-09-14T15:00:30.930Z,21.04
2023-09-14T15:03:34.974Z,21.01
2023-09-14T15:06:39.153Z,20.98
2023-09-14T15:09:43.365Z,20.95
2023-09-14T15:12:48.308Z,20.89
2023-09-14T15:15:52.590Z,20.84
2023-09-14T15:18:56.691Z,20.81
2023-09-14T15:22:01.238Z,20.76
2023-09-14T15:25:05.804Z,20.71
2023-09-14T15:28:10.023Z,20.67
2023-09-14T15:31:18.710Z,20.67
2023-09-14T15:34:22.738Z,20.67
2023-09-14T15:37:27.156Z,20.67
2023-09-14T15:40:32.284Z,20.67
2023-09-14T15:43:36.259Z,20.67
2023-09-14T15:46:40.465Z,20.64
2023-09-14T15:49:45.009Z,20.62
2023-09-14T15:52:49.220Z,20.60
2023-09-14T15:55:54.583Z,20.55
2023-09-14T15:58:58.654Z,20.51
2023-09-14T16:02:03.402Z,20.48
2023-09-14T16:05:09.496Z,20.47
2023-09-14T16:08:13.933Z,20.47
2023-09-14T16:11:18.499Z,20.48
2023-09-14T16:14:23.568Z,20.48
2023-09-14T16:17:27.630Z,20.46
2023-09-14T16:20:32.584Z,20.45
2023-09-14T16:23:36.686Z,20.42
2023-09-14T16:26:40.693Z,20.40
2023-09-14T16:29:44.628Z,20.36
2023-09-14T16:32:50.958Z,20.35
2023-09-14T16:35:58.315Z,20.31
2023-09-14T16:39:08.048Z,20.26
2023-09-14T16:42:12.221Z,20.23
2023-09-14T16:45:16.461Z,20.17
2023-09-14T16:48:20.658Z,20.13
2023-09-14T16:51:25.916Z,20.08
2023-09-14T16:54:30.341Z,20.02
2023-09-14T16:57:34.457Z,20.00
2023-09-14T17:00:38.507Z,19.97
2023-09-14T17:03:42.624Z,19.96
2023-09-14T17:06:48.215Z,19.94
2023-09-14T17:09:52.429Z,19.91
2023-09-14T17:12:56.622Z,19.87
2023-09-14T17:16:00.685Z,19.82
2023-09-14T17:19:06.688Z,19.79
2023-09-14T17:22:12.667Z,19.75
2023-09-14T17:25:16.739Z,19.73
2023-09-14T17:28:23.172Z,19.69
2023-09-14T17:31:27.458Z,19.67
2023-09-14T17:34:32.090Z,19.62
2023-09-14T17:37:36.449Z,19.57
2023-09-14T17:40:40.390Z,19.51
2023-09-14T17:43:44.731Z,19.47
2023-09-14T17:46:48.791Z,19.43
2023-09-14T17:49:52.808Z,19.41
2023-09-14T17:52:56.776Z,19.37
2023-09-14T17:56:04.190Z,19.35
2023-09-14T17:59:08.360Z,19.34
2023-09-14T18:02:12.328Z,19.32
2023-09-14T18:05:16.504Z,19.29
2023-09-14T18:08:21.445Z,19.28
2023-09-14T18:11:25.913Z,19.28
2023-09-14T18:14:29.866Z,19.27
2023-09-14T18:17:35.658Z,19.26
2023-09-14T18:20:39.884Z,19.24
2023-09-14T18:23:44.050Z,19.21
2023-09-14T18:26:49.292Z,19.16
2023-09-14T18:29:53.230Z,19.12
2023-09-14T18:32:59.671Z,19.12
2023-09-14T18:36:04.360Z,19.12
2023-09-14T18:39:08.390Z,19.10
2023-09-14T18:42:12.387Z,19.07
2023-09-14T18:45:16.781Z,19.06
2023-09-14T18:48:21.284Z,19.07
2023-09-14T18:51:25.268Z,19.06
2023-09-14T18:54:29.243Z,19.06
2023-09-14T18:57:33.186Z,19.06
2023-09-14T19:00:37.454Z,19.06
2023-09-14T19:03:41.472Z,19.05
2023-09-14T19:06:46.051Z,19.07
2023-09-14T19:09:50.659Z,19.09
2023-09-14T19:12:54.626Z,19.09
2023-09-14T19:15:58.646Z,19.10
2023-09-14T19:19:02.871Z,19.08
2023-09-14T19:22:07.004Z,19.05
2023-09-14T19:25:11.147Z,19.05
2023-09-14T19:28:15.325Z,19.04
2023-09-14T19:31:20.870Z,19.04
2023-09-14T19:34:24.857Z,19.03
2023-09-14T19:37:28.814Z,19.01
2023-09-14T19:40:33.194Z,19.00
2023-09-14T19:43:37.031Z,18.98
2023-09-14T19:46:41.918Z,18.96
2023-09-14T19:49:46.068Z,18.92
2023-09-14T19:52:50.101Z,18.85
2023-09-14T19:55:54.560Z,18.77
2023-09-14T19:58:58.584Z,18.66
2023-09-14T20:02:02.700Z,18.55
2023-09-14T20:05:07.017Z,18.43
2023-09-14T20:08:10.994Z,18.36
2023-09-14T20:11:15.301Z,18.28
2023-09-14T20:14:19.937Z,18.22
2023-09-14T20:17:24.029Z,18.18
2023-09-14T20:20:29.095Z,18.13
2023-09-14T20:23:33.110Z,18.10
2023-09-14T20:26:38.418Z,18.04
2023-09-14T20:29:42.422Z,18.00
2023-09-14T20:32:46.466Z,17.94
2023-09-14T20:35:50.518Z,17.87
2023-09-14T20:38:55.362Z,17.82
2023-09-14T20:42:00.867Z,17.76
2023-09-14T20:45:07.377Z,17.73
2023-09-14T20:48:14.324Z,17.68
2023-09-14T20:51:18.785Z,17.64
2023-09-14T20:54:22.826Z,17.60
2023-09-14T20:57:26.893Z,17.54
2023-09-14T21:00:34.656Z,17.50
2023-09-14T21:03:39.093Z,17.49
2023-09-14T21:06:43.804Z,17.48
2023-09-14T21:09:47.828Z,17.48
2023-09-14T21:12:51.899Z,17.47
2023-09-14T21:15:55.973Z,17.45
2023-09-14T21:19:00.189Z,17.41
2023-09-14T21:22:04.621Z,17.36
2023-09-14T21:25:08.829Z,17.33
2023-09-14T21:28:12.884Z,17.31
2023-09-14T21:31:17.447Z,17.28
2023-09-14T21:34:21.457Z,17.24
2023-09-14T21:37:25.411Z,17.22
2023-09-14T21:40:31.648Z,17.19
2023-09-14T21:43:38.114Z,17.16
2023-09-14T21:46:42.154Z,17.13
2023-09-14T21:49:46.455Z,17.10
2023-09-14T21:52:50.563Z,17.06
2023-09-14T21:55:54.535Z,17.02
2023-09-14T21:58:58.474Z,17.00
2023-09-14T22:02:04.218Z,16.98
2023-09-14T22:05:08.801Z,16.95
2023-09-14T22:08:12.790Z,16.92
2023-09-14T22:11:16.690Z,16.88
2023-09-14T22:14:21.669Z,16.83
2023-09-14T22:17:25.769Z,16.77
2023-09-14T22:20:31.336Z,16.72
2023-09-14T22:23:35.255Z,16.65
2023-09-14T22:26:39.594Z,16.60
2023-09-14T22:29:43.472Z,16.57
2023-09-14T22:32:49.146Z,16.51
2023-09-14T22:35:54.193Z,16.45
2023-09-14T22:38:58.154Z,16.39
2023-09-14T22:42:02.120Z,16.31
2023-09-14T22:45:07.371Z,16.24
2023-09-14T22:48:11.377Z,16.15
2023-09-14T22:51:17.900Z,16.09
2023-09-14T22:54:22.590Z,16.05
2023-09-14T22:57:27.105Z,16.02
2023-09-14T23:00:31.075Z,16.00
2023-09-14T23:03:35.604Z,15.95
2023-09-14T23:06:39.804Z,15.90
2023-09-14T23:09:45.164Z,15.84
2023-09-14T23:12:49.497Z,15.75
2023-09-14T23:15:53.698Z,15.66
2023-09-14T23:18:57.786Z,15.57
2023-09-14T23:22:02.389Z,15.51
2023-09-14T23:25:08.611Z,15.47
2023-09-14T23:28:12.873Z,15.38
2023-09-14T23:31:18.034Z,15.31
2023-09-14T23:34:23.813Z,15.24
2023-09-14T23:37:27.803Z,15.17
2023-09-14T23:40:36.354Z,15.13
2023-09-14T23:43:43.598Z,15.09
2023-09-14T23:46:47.882Z,15.07
2023-09-14T23:49:52.168Z,15.05
2023-09-14T23:52:57.242Z,15.04
2023-09-14T23:56:01.215Z,15.01
2023-09-14T23:59:09.348Z,14.95
